createdAt,value
2022-07-25T00:03:39.157Z,65.35
2022-07-25T00:08:38.842Z,64.64
2022-07-25T00:13:37.630Z,66.03
2022-07-25T00:18:37.840Z,65.61
2022-07-25T00:23:36.705Z,65.54
2022-07-25T00:28:35.778Z,64.71
2022-07-25T00:33:40.568Z,65.99
2022-07-25T00:38:41.987Z,66.21
2022-07-25T00:43:45.442Z,65.99
2022-07-25T00:48:44.732Z,67.61
2022-07-25T00:53:52.442Z,67.92
2022-07-25T00:58:52.078Z,66.71
2022-07-25T01:03:51.884Z,67.75
2022-07-25T01:08:52.747Z,66.70
2022-07-25T01:13:54.839Z,67.27
2022-07-25T01:18:54.272Z,66.61
2022-07-25T01:23:57.516Z,70.98
2022-07-25T01:28:57.189Z,70.50
2022-07-25T01:33:56.423Z,70.39
2022-07-25T01:38:56.934Z,70.44
2022-07-25T01:43:56.039Z,70.00
2022-07-25T01:48:55.396Z,69.38
2022-07-25T01:53:54.522Z,69.94
2022-07-25T01:58:54.808Z,70.68
2022-07-25T02:03:54.699Z,69.40
2022-07-25T02:08:55.764Z,70.41
2022-07-25T02:13:56.318Z,69.51
2022-07-25T02:18:57.305Z,69.31
2022-07-25T02:23:56.589Z,66.85
2022-07-25T02:28:57.725Z,67.81
2022-07-25T02:33:57.334Z,68.63
2022-07-25T02:38:57.606Z,67.77
2022-07-25T02:44:00.610Z,68.47
2022-07-25T02:49:02.801Z,68.34
2022-07-25T02:54:03.198Z,68.80
2022-07-25T02:59:07.840Z,68.05
2022-07-25T03:04:12.714Z,68.14
2022-07-25T03:09:15.421Z,68.81
2022-07-25T03:14:17.739Z,67.74
2022-07-25T03:19:17.809Z,67.68
2022-07-25T03:24:21.553Z,68.85
2022-07-25T03:29:27.679Z,68.53
2022-07-25T03:34:29.844Z,66.08
2022-07-25T03:39:30.882Z,64.76
2022-07-25T03:44:40.620Z,63.67
2022-07-25T03:49:46.929Z,62.23
2022-07-25T03:55:00.635Z,62.08
2022-07-25T04:00:12.832Z,63.86
2022-07-25T04:05:14.759Z,63.25
2022-07-25T04:10:17.103Z,62.98
2022-07-25T04:15:18.372Z,63.32
2022-07-25T04:20:17.478Z,63.84
2022-07-25T04:25:19.703Z,63.15
2022-07-25T04:30:24.726Z,63.02
2022-07-25T04:35:24.235Z,62.85
2022-07-25T04:40:22.988Z,62.51
2022-07-25T04:45:23.698Z,62.40
2022-07-25T04:50:24.968Z,61.42
2022-07-25T04:55:24.187Z,61.15
2022-07-25T05:00:25.018Z,60.92
2022-07-25T05:05:23.842Z,60.70
2022-07-25T05:10:22.566Z,60.24
2022-07-25T05:15:21.513Z,60.84
2022-07-25T05:20:21.783Z,60.45
2022-07-25T05:25:20.989Z,58.52
2022-07-25T05:30:19.765Z,57.77
2022-07-25T05:35:18.560Z,58.17
2022-07-25T05:40:19.538Z,57.52
2022-07-25T05:45:18.281Z,58.61
2022-07-25T05:50:17.002Z,57.17
2022-07-25T05:55:16.080Z,57.30
2022-07-25T06:00:17.043Z,56.52
2022-07-25T06:05:15.846Z,56.32
2022-07-25T06:10:16.651Z,55.71
2022-07-25T06:15:19.763Z,54.72
2022-07-25T06:20:22.105Z,54.23
2022-07-25T06:25:20.964Z,53.74
2022-07-25T06:30:21.164Z,53.62
2022-07-25T06:35:20.324Z,53.58
2022-07-25T06:40:19.128Z,52.95
2022-07-25T06:45:17.961Z,52.61
2022-07-25T06:50:21.427Z,52.67
2022-07-25T06:55:20.441Z,52.51
2022-07-25T07:00:19.630Z,51.45
2022-07-25T07:05:20.613Z,51.04
2022-07-25T07:10:23.994Z,51.89
2022-07-25T07:15:22.839Z,51.95
2022-07-25T07:20:23.305Z,52.25
2022-07-25T07:25:24.239Z,52.72
2022-07-25T07:30:52.172Z,52.55
2022-07-25T07:35:47.744Z,51.16
2022-07-25T07:40:46.505Z,51.03
2022-07-25T07:45:45.680Z,50.55
2022-07-25T07:50:44.603Z,49.58
2022-07-25T07:55:45.486Z,49.33
2022-07-25T08:00:44.907Z,48.51
2022-07-25T08:05:45.651Z,47.75
2022-07-25T08:10:48.000Z,46.75
2022-07-25T08:15:51.889Z,45.55
2022-07-25T08:20:51.360Z,45.32
2022-07-25T08:25:59.011Z,44.42
2022-07-25T08:30:59.872Z,42.89
2022-07-25T08:35:59.794Z,41.44
2022-07-25T08:41:00.142Z,40.46
2022-07-25T08:46:01.456Z,39.51
2022-07-25T08:51:01.676Z,39.56
2022-07-25T08:56:05.369Z,38.71
2022-07-25T09:01:09.238Z,38.26
2022-07-25T09:06:21.886Z,37.40
2022-07-25T09:11:30.485Z,35.82
2022-07-25T09:16:33.910Z,34.29
2022-07-25T09:21:32.819Z,33.21
2022-07-25T09:26:32.987Z,31.38
2022-07-25T09:31:35.143Z,30.85
2022-07-25T09:36:35.634Z,28.49
2022-07-25T09:41:40.613Z,27.37
2022-07-25T09:46:39.534Z,26.84
2022-07-25T09:51:38.508Z,25.75
2022-07-25T09:56:38.550Z,23.47
2022-07-25T10:01:41.441Z,24.60
2022-07-25T10:06:46.307Z,23.34
2022-07-25T10:12:10.153Z,23.12
2022-07-25T10:17:10.538Z,22.40
2022-07-25T10:22:15.085Z,22.71
2022-07-25T10:27:22.311Z,22.67
2022-07-25T10:32:21.405Z,22.40
2022-07-25T10:37:21.306Z,22.22
2022-07-25T10:42:26.792Z,21.39
2022-07-25T10:47:28.309Z,21.32
2022-07-25T10:52:29.923Z,21.35
2022-07-25T10:57:32.276Z,22.19
2022-07-25T11:02:32.907Z,22.39
2022-07-25T11:07:36.191Z,20.68
2022-07-25T11:12:37.558Z,20.61
2022-07-25T11:17:36.323Z,19.69
2022-07-25T11:22:35.913Z,18.99
2022-07-25T11:27:36.866Z,19.72
2022-07-25T11:32:40.481Z,18.92
2022-07-25T11:37:41.708Z,18.51
2022-07-25T11:42:44.070Z,18.18
2022-07-25T11:47:43.081Z,19.05
2022-07-25T11:52:46.063Z,19.61
2022-07-25T11:57:49.227Z,20.35
2022-07-25T12:02:49.578Z,20.15
2022-07-25T12:07:51.520Z,19.97
2022-07-25T12:12:54.799Z,21.04
2022-07-25T12:17:55.590Z,20.25
2022-07-25T12:23:00.377Z,19.82
2022-07-25T12:28:10.738Z,19.44
2022-07-25T12:33:14.913Z,18.28
2022-07-25T12:38:14.499Z,17.95
2022-07-25T12:43:14.673Z,17.29
2022-07-25T12:48:14.901Z,17.29
2022-07-25T12:53:14.655Z,16.90
2022-07-25T12:58:15.289Z,16.29
2022-07-25T13:03:15.513Z,17.27
2022-07-25T13:08:14.225Z,17.25
2022-07-25T13:13:14.789Z,17.22
2022-07-25T13:18:13.516Z,17.13
2022-07-25T13:23:13.642Z,16.28
2022-07-25T13:28:17.029Z,16.90
2022-07-25T13:33:15.767Z,17.03
2022-07-25T13:38:15.068Z,16.71
2022-07-25T13:43:16.103Z,16.43
2022-07-25T13:48:30.915Z,16.22
2022-07-25T13:53:30.930Z,16.50
2022-07-25T13:58:31.258Z,16.42
2022-07-25T14:03:30.682Z,15.51
2022-07-25T14:08:29.381Z,15.47
2022-07-25T14:13:28.079Z,14.90
2022-07-25T14:18:28.186Z,14.59
2022-07-25T14:23:30.076Z,14.91
2022-07-25T14:28:29.036Z,14.53
2022-07-25T14:33:29.244Z,13.58
2022-07-25T14:38:28.053Z,13.21
2022-07-25T14:43:26.885Z,13.64
2022-07-25T14:48:25.752Z,13.07
2022-07-25T14:53:26.017Z,13.73
2022-07-25T14:58:25.445Z,13.30
2022-07-25T15:03:24.227Z,14.17
2022-07-25T15:08:26.659Z,13.74
2022-07-25T15:13:32.938Z,13.97
2022-07-25T15:18:32.213Z,14.69
2022-07-25T15:23:32.337Z,14.22
2022-07-25T15:28:31.395Z,14.67
2022-07-25T15:33:30.665Z,14.79
2022-07-25T15:38:30.943Z,14.38
2022-07-25T15:43:31.214Z,15.18
2022-07-25T15:48:30.124Z,14.68
2022-07-25T15:53:30.445Z,15.91
2022-07-25T15:58:30.674Z,15.62
2022-07-25T16:03:29.824Z,15.95
2022-07-25T16:08:28.695Z,16.69
2022-07-25T16:13:28.228Z,16.82
2022-07-25T16:18:28.480Z,16.75
2022-07-25T16:23:28.355Z,16.89
2022-07-25T16:28:27.684Z,17.34
2022-07-25T16:33:28.195Z,17.81
2022-07-25T16:38:27.645Z,18.37
2022-07-25T16:43:31.454Z,18.42
2022-07-25T16:48:35.257Z,18.54
2022-07-25T16:53:35.893Z,18.82
2022-07-25T16:58:35.086Z,19.08
2022-07-25T17:03:35.643Z,19.34
2022-07-25T17:08:35.274Z,19.96
2022-07-25T17:13:34.171Z,20.24
2022-07-25T17:18:33.025Z,21.29
2022-07-25T17:23:35.842Z,21.18
2022-07-25T17:28:38.120Z,21.50
2022-07-25T17:33:37.251Z,22.16
2022-07-25T17:38:38.168Z,22.74
2022-07-25T17:43:37.134Z,22.92
2022-07-25T17:48:36.354Z,23.34
2022-07-25T17:53:35.245Z,23.60
2022-07-25T17:58:35.655Z,24.16
2022-07-25T18:03:34.502Z,24.59
2022-07-25T18:08:35.452Z,25.37
2022-07-25T18:13:36.136Z,25.44
2022-07-25T18:18:37.467Z,25.96
2022-07-25T18:23:36.273Z,26.43
2022-07-25T18:28:36.964Z,27.13
2022-07-25T18:33:37.869Z,27.12
2022-07-25T18:38:37.342Z,27.88
2022-07-25T18:43:37.823Z,27.60
2022-07-25T18:48:37.431Z,27.84
2022-07-25T18:53:37.013Z,28.33
2022-07-25T18:58:37.759Z,28.20
2022-07-25T19:03:39.943Z,28.87
2022-07-25T19:08:39.375Z,28.86
2022-07-25T19:13:50.007Z,28.70
2022-07-25T19:18:49.781Z,28.74
2022-07-25T19:23:51.225Z,29.09
2022-07-25T19:28:51.902Z,29.84
2022-07-25T19:33:50.765Z,29.91
2022-07-25T19:38:49.736Z,29.56
2022-07-25T19:43:48.582Z,30.31
2022-07-25T19:48:48.897Z,30.00
2022-07-25T19:53:47.508Z,30.40
2022-07-25T19:58:46.481Z,30.11
2022-07-25T20:03:45.431Z,30.32
2022-07-25T20:08:45.670Z,30.45
2022-07-25T20:13:44.517Z,30.66
2022-07-25T20:18:43.437Z,32.21
2022-07-25T20:23:51.814Z,32.21
2022-07-25T20:28:50.814Z,32.27
2022-07-25T20:33:50.463Z,32.51
2022-07-25T20:38:50.955Z,33.20
2022-07-25T20:43:49.562Z,32.89
2022-07-25T20:48:48.326Z,33.20
2022-07-25T20:53:51.691Z,33.79
2022-07-25T20:58:53.878Z,33.41
2022-07-25T21:03:52.761Z,33.76
2022-07-25T21:08:51.628Z,34.03
2022-07-25T21:13:51.204Z,34.02
2022-07-25T21:18:51.393Z,34.46
2022-07-25T21:23:50.302Z,34.25
2022-07-25T21:28:49.107Z,34.96
2022-07-25T21:33:50.471Z,34.77
2022-07-25T21:38:50.691Z,34.75
2022-07-25T21:43:49.677Z,34.88
2022-07-25T21:49:06.020Z,35.18
2022-07-25T21:54:07.157Z,35.56
2022-07-25T21:59:06.888Z,35.15
2022-07-25T22:04:06.771Z,34.92
2022-07-25T22:09:08.208Z,34.67
2022-07-25T22:14:08.973Z,34.12
2022-07-25T22:19:08.304Z,33.89
2022-07-25T22:24:09.394Z,34.21
2022-07-25T22:29:08.283Z,34.61
2022-07-25T22:34:07.384Z,35.52
2022-07-25T22:39:06.488Z,36.67
2022-07-25T22:44:07.126Z,37.08
2022-07-25T22:49:06.800Z,36.79
2022-07-25T22:54:06.440Z,37.51
2022-07-25T22:59:06.980Z,37.58
2022-07-25T23:04:06.273Z,37.27
2022-07-25T23:09:05.549Z,37.36
2022-07-25T23:14:04.640Z,37.99
2022-07-25T23:19:05.058Z,38.32
2022-07-25T23:24:04.119Z,38.47
2022-07-25T23:29:02.964Z,38.46
2022-07-25T23:34:01.823Z,38.37
2022-07-25T23:39:02.052Z,38.38
2022-07-25T23:44:00.976Z,38.21
2022-07-25T23:49:01.061Z,39.46
2022-07-25T23:54:03.652Z,39.89
2022-07-25T23:59:02.563Z,40.58
